sensor_id;sensor_type;location;lat;lon;timestamp;P1;durP1;ratioP1;P2;durP2;ratioP2
50393;SDS011;36308;46.312;25.288;2022-08-19T00:00:03;12.43;;;8.27;;
50393;SDS011;36308;46.312;25.288;2022-08-19T00:02:33;11.85;;;8.93;;
50393;SDS011;36308;46.312;25.288;2022-08-19T00:04:58;11.45;;;8.32;;
50393;SDS011;36308;46.312;25.288;2022-08-19T00:07:24;11.13;;;8.80;;
50393;SDS011;36308;46.312;25.288;2022-08-19T00:09:49;11.85;;;8.77;;
50393;SDS011;36308;46.312;25.288;2022-08-19T00:12:15;9.57;;;8.02;;
50393;SDS011;36308;46.312;25.288;2022-08-19T00:14:40;12.80;;;8.77;;
50393;SDS011;36308;46.312;25.288;2022-08-19T00:17:07;11.02;;;8.93;;
50393;SDS011;36308;46.312;25.288;2022-08-19T00:19:33;11.65;;;8.60;;
50393;SDS011;36308;46.312;25.288;2022-08-19T00:21:59;10.18;;;8.30;;
50393;SDS011;36308;46.312;25.288;2022-08-19T00:24:25;9.73;;;7.93;;
50393;SDS011;36308;46.312;25.288;2022-08-19T00:26:53;11.50;;;8.95;;
50393;SDS011;36308;46.312;25.288;2022-08-19T00:29:20;10.70;;;8.43;;
50393;SDS011;36308;46.312;25.288;2022-08-19T00:31:46;14.43;;;7.72;;
50393;SDS011;36308;46.312;25.288;2022-08-19T00:34:12;11.52;;;7.82;;
50393;SDS011;36308;46.312;25.288;2022-08-19T00:36:41;9.32;;;7.97;;
50393;SDS011;36308;46.312;25.288;2022-08-19T00:39:07;10.07;;;8.38;;
50393;SDS011;36308;46.312;25.288;2022-08-19T00:41:33;15.13;;;8.73;;
50393;SDS011;36308;46.312;25.288;2022-08-19T00:44:09;11.18;;;8.60;;
50393;SDS011;36308;46.312;25.288;2022-08-19T00:46:45;10.82;;;8.30;;
50393;SDS011;36308;46.312;25.288;2022-08-19T00:49:55;10.88;;;8.05;;
50393;SDS011;36308;46.312;25.288;2022-08-19T00:52:09;12.65;;;8.32;;
50393;SDS011;36308;46.312;25.288;2022-08-19T00:54:39;11.43;;;8.13;;
50393;SDS011;36308;46.312;25.288;2022-08-19T00:57:08;14.02;;;8.57;;
50393;SDS011;36308;46.312;25.288;2022-08-19T00:59:40;13.60;;;8.60;;
50393;SDS011;36308;46.312;25.288;2022-08-19T01:02:08;11.30;;;8.70;;
50393;SDS011;36308;46.312;25.288;2022-08-19T01:04:33;12.18;;;8.73;;
50393;SDS011;36308;46.312;25.288;2022-08-19T01:06:59;13.43;;;8.77;;
50393;SDS011;36308;46.312;25.288;2022-08-19T01:09:26;12.82;;;8.77;;
50393;SDS011;36308;46.312;25.288;2022-08-19T01:11:52;10.48;;;8.57;;
50393;SDS011;36308;46.312;25.288;2022-08-19T01:14:18;12.20;;;9.23;;
50393;SDS011;36308;46.312;25.288;2022-08-19T01:16:44;11.45;;;8.55;;
50393;SDS011;36308;46.312;25.288;2022-08-19T01:19:26;14.00;;;9.27;;
50393;SDS011;36308;46.312;25.288;2022-08-19T01:21:57;13.00;;;9.25;;
50393;SDS011;36308;46.312;25.288;2022-08-19T01:24:28;14.00;;;8.85;;
50393;SDS011;36308;46.312;25.288;2022-08-19T01:26:55;13.80;;;8.98;;
50393;SDS011;36308;46.312;25.288;2022-08-19T01:29:21;11.38;;;8.65;;
50393;SDS011;36308;46.312;25.288;2022-08-19T01:31:46;13.27;;;9.00;;
50393;SDS011;36308;46.312;25.288;2022-08-19T01:34:14;10.75;;;8.52;;
50393;SDS011;36308;46.312;25.288;2022-08-19T01:36:40;11.70;;;9.15;;
50393;SDS011;36308;46.312;25.288;2022-08-19T01:39:11;12.60;;;9.48;;
50393;SDS011;36308;46.312;25.288;2022-08-19T01:41:39;11.27;;;9.02;;
50393;SDS011;36308;46.312;25.288;2022-08-19T01:44:05;10.57;;;8.82;;
50393;SDS011;36308;46.312;25.288;2022-08-19T01:46:33;11.10;;;8.15;;
50393;SDS011;36308;46.312;25.288;2022-08-19T01:48:58;12.05;;;8.30;;
50393;SDS011;36308;46.312;25.288;2022-08-19T01:51:24;11.50;;;9.52;;
50393;SDS011;36308;46.312;25.288;2022-08-19T01:53:50;14.18;;;9.63;;
50393;SDS011;36308;46.312;25.288;2022-08-19T01:56:16;13.90;;;9.18;;
50393;SDS011;36308;46.312;25.288;2022-08-19T01:58:54;23.02;;;9.82;;
50393;SDS011;36308;46.312;25.288;2022-08-19T02:01:22;10.80;;;8.70;;
50393;SDS011;36308;46.312;25.288;2022-08-19T02:03:48;12.85;;;9.10;;
50393;SDS011;36308;46.312;25.288;2022-08-19T02:06:14;13.20;;;9.63;;
50393;SDS011;36308;46.312;25.288;2022-08-19T02:08:41;12.23;;;9.25;;
50393;SDS011;36308;46.312;25.288;2022-08-19T02:11:10;11.25;;;9.05;;
50393;SDS011;36308;46.312;25.288;2022-08-19T02:13:56;13.45;;;8.65;;
50393;SDS011;36308;46.312;25.288;2022-08-19T02:16:22;10.77;;;9.10;;
50393;SDS011;36308;46.312;25.288;2022-08-19T02:18:49;12.15;;;8.00;;
50393;SDS011;36308;46.312;25.288;2022-08-19T02:21:16;14.63;;;9.30;;
50393;SDS011;36308;46.312;25.288;2022-08-19T02:23:43;12.35;;;9.55;;
50393;SDS011;36308;46.312;25.288;2022-08-19T02:26:09;15.27;;;9.13;;
50393;SDS011;36308;46.312;25.288;2022-08-19T02:28:35;14.63;;;9.38;;
50393;SDS011;36308;46.312;25.288;2022-08-19T02:31:01;11.73;;;8.68;;
50393;SDS011;36308;46.312;25.288;2022-08-19T02:33:27;11.50;;;8.60;;
50393;SDS011;36308;46.312;25.288;2022-08-19T02:35:53;9.95;;;8.65;;
50393;SDS011;36308;46.312;25.288;2022-08-19T02:38:19;13.60;;;9.50;;
50393;SDS011;36308;46.312;25.288;2022-08-19T02:40:55;11.38;;;8.93;;
50393;SDS011;36308;46.312;25.288;2022-08-19T02:43:22;12.25;;;8.85;;
50393;SDS011;36308;46.312;25.288;2022-08-19T02:45:49;12.15;;;8.90;;
50393;SDS011;36308;46.312;25.288;2022-08-19T02:48:16;10.98;;;9.30;;
50393;SDS011;36308;46.312;25.288;2022-08-19T02:50:43;10.75;;;8.95;;
50393;SDS011;36308;46.312;25.288;2022-08-19T02:53:09;11.88;;;9.32;;
50393;SDS011;36308;46.312;25.288;2022-08-19T02:55:35;10.93;;;8.73;;
50393;SDS011;36308;46.312;25.288;2022-08-19T02:58:00;11.55;;;9.35;;
50393;SDS011;36308;46.312;25.288;2022-08-19T03:00:26;12.45;;;9.07;;
50393;SDS011;36308;46.312;25.288;2022-08-19T03:02:52;11.73;;;8.88;;
50393;SDS011;36308;46.312;25.288;2022-08-19T03:05:18;12.48;;;8.88;;
50393;SDS011;36308;46.312;25.288;2022-08-19T03:07:43;12.35;;;9.88;;
50393;SDS011;36308;46.312;25.288;2022-08-19T03:10:10;15.23;;;9.38;;
50393;SDS011;36308;46.312;25.288;2022-08-19T03:12:36;15.88;;;9.57;;
50393;SDS011;36308;46.312;25.288;2022-08-19T03:15:04;14.55;;;12.15;;
50393;SDS011;36308;46.312;25.288;2022-08-19T03:17:32;11.88;;;10.00;;
50393;SDS011;36308;46.312;25.288;2022-08-19T03:19:58;15.00;;;9.88;;
50393;SDS011;36308;46.312;25.288;2022-08-19T03:22:23;13.25;;;9.88;;
50393;SDS011;36308;46.312;25.288;2022-08-19T03:24:50;13.85;;;9.57;;
50393;SDS011;36308;46.312;25.288;2022-08-19T03:27:15;18.88;;;11.57;;
50393;SDS011;36308;46.312;25.288;2022-08-19T03:29:43;13.75;;;10.93;;
50393;SDS011;36308;46.312;25.288;2022-08-19T03:32:08;15.52;;;10.10;;
50393;SDS011;36308;46.312;25.288;2022-08-19T03:34:36;13.82;;;9.65;;
50393;SDS011;36308;46.312;25.288;2022-08-19T03:37:04;24.23;;;16.35;;
50393;SDS011;36308;46.312;25.288;2022-08-19T03:39:32;22.05;;;17.23;;
50393;SDS011;36308;46.312;25.288;2022-08-19T03:41:57;15.82;;;10.48;;
50393;SDS011;36308;46.312;25.288;2022-08-19T03:44:26;16.20;;;9.52;;
50393;SDS011;36308;46.312;25.288;2022-08-19T03:46:52;12.55;;;9.23;;
50393;SDS011;36308;46.312;25.288;2022-08-19T03:49:20;14.38;;;9.60;;
50393;SDS011;36308;46.312;25.288;2022-08-19T03:51:48;13.85;;;9.45;;
50393;SDS011;36308;46.312;25.288;2022-08-19T03:54:16;13.50;;;9.68;;
50393;SDS011;36308;46.312;25.288;2022-08-19T03:56:44;17.52;;;10.10;;
50393;SDS011;36308;46.312;25.288;2022-08-19T03:59:12;14.70;;;9.43;;
50393;SDS011;36308;46.312;25.288;2022-08-19T04:01:40;12.63;;;10.32;;
50393;SDS011;36308;46.312;25.288;2022-08-19T04:04:05;12.35;;;9.77;;
50393;SDS011;36308;46.312;25.288;2022-08-19T04:06:33;15.88;;;10.70;;
50393;SDS011;36308;46.312;25.288;2022-08-19T04:09:01;13.85;;;10.55;;
50393;SDS011;36308;46.312;25.288;2022-08-19T04:11:30;18.27;;;10.95;;
50393;SDS011;36308;46.312;25.288;2022-08-19T04:13:58;12.23;;;9.55;;
50393;SDS011;36308;46.312;25.288;2022-08-19T04:16:25;13.48;;;10.05;;
50393;SDS011;36308;46.312;25.288;2022-08-19T04:18:55;14.73;;;10.98;;
50393;SDS011;36308;46.312;25.288;2022-08-19T04:21:23;15.57;;;10.82;;
50393;SDS011;36308;46.312;25.288;2022-08-19T04:23:50;16.38;;;11.32;;
50393;SDS011;36308;46.312;25.288;2022-08-19T04:26:17;18.13;;;11.68;;
50393;SDS011;36308;46.312;25.288;2022-08-19T04:28:44;18.85;;;11.77;;
50393;SDS011;36308;46.312;25.288;2022-08-19T04:31:14;15.80;;;11.68;;
50393;SDS011;36308;46.312;25.288;2022-08-19T04:33:42;14.85;;;11.40;;
50393;SDS011;36308;46.312;25.288;2022-08-19T04:36:07;25.23;;;15.23;;
50393;SDS011;36308;46.312;25.288;2022-08-19T04:38:40;20.37;;;13.83;;
50393;SDS011;36308;46.312;25.288;2022-08-19T04:41:05;14.15;;;10.57;;
50393;SDS011;36308;46.312;25.288;2022-08-19T04:43:49;13.27;;;10.60;;
50393;SDS011;36308;46.312;25.288;2022-08-19T04:46:15;15.95;;;11.25;;
50393;SDS011;36308;46.312;25.288;2022-08-19T04:48:41;15.38;;;10.85;;
50393;SDS011;36308;46.312;25.288;2022-08-19T04:51:09;14.20;;;9.88;;
50393;SDS011;36308;46.312;25.288;2022-08-19T04:53:37;16.42;;;11.73;;
50393;SDS011;36308;46.312;25.288;2022-08-19T04:56:06;15.55;;;11.20;;
50393;SDS011;36308;46.312;25.288;2022-08-19T04:58:34;17.67;;;11.38;;
50393;SDS011;36308;46.312;25.288;2022-08-19T05:01:00;16.55;;;11.68;;
50393;SDS011;36308;46.312;25.288;2022-08-19T05:03:25;16.63;;;10.63;;
50393;SDS011;36308;46.312;25.288;2022-08-19T05:05:51;21.33;;;12.43;;
50393;SDS011;36308;46.312;25.288;2022-08-19T05:08:19;19.33;;;13.43;;
50393;SDS011;36308;46.312;25.288;2022-08-19T05:10:47;19.25;;;12.85;;
50393;SDS011;36308;46.312;25.288;2022-08-19T05:13:14;18.13;;;11.85;;
50393;SDS011;36308;46.312;25.288;2022-08-19T05:15:42;17.92;;;12.20;;
50393;SDS011;36308;46.312;25.288;2022-08-19T05:18:09;20.17;;;12.55;;
50393;SDS011;36308;46.312;25.288;2022-08-19T05:20:53;19.75;;;11.52;;
50393;SDS011;36308;46.312;25.288;2022-08-19T05:23:37;18.73;;;11.57;;
50393;SDS011;36308;46.312;25.288;2022-08-19T05:26:02;23.73;;;12.40;;
50393;SDS011;36308;46.312;25.288;2022-08-19T05:28:28;19.33;;;12.70;;
50393;SDS011;36308;46.312;25.288;2022-08-19T05:30:53;29.80;;;12.20;;
50393;SDS011;36308;46.312;25.288;2022-08-19T05:33:20;18.90;;;12.10;;
50393;SDS011;36308;46.312;25.288;2022-08-19T05:35:47;17.58;;;12.60;;
50393;SDS011;36308;46.312;25.288;2022-08-19T05:38:14;19.40;;;12.10;;
50393;SDS011;36308;46.312;25.288;2022-08-19T05:40:41;19.80;;;12.10;;
50393;SDS011;36308;46.312;25.288;2022-08-19T05:43:11;21.85;;;11.90;;
50393;SDS011;36308;46.312;25.288;2022-08-19T05:45:40;16.10;;;12.00;;
50393;SDS011;36308;46.312;25.288;2022-08-19T05:48:07;18.80;;;11.88;;
50393;SDS011;36308;46.312;25.288;2022-08-19T05:50:36;16.67;;;12.13;;
50393;SDS011;36308;46.312;25.288;2022-08-19T05:53:02;21.83;;;11.85;;
50393;SDS011;36308;46.312;25.288;2022-08-19T05:55:28;18.02;;;11.60;;
50393;SDS011;36308;46.312;25.288;2022-08-19T05:57:54;14.95;;;11.20;;
50393;SDS011;36308;46.312;25.288;2022-08-19T06:00:19;17.05;;;11.32;;
50393;SDS011;36308;46.312;25.288;2022-08-19T06:02:45;17.40;;;11.43;;
50393;SDS011;36308;46.312;25.288;2022-08-19T06:05:10;17.05;;;11.93;;
50393;SDS011;36308;46.312;25.288;2022-08-19T06:07:36;18.88;;;11.70;;
50393;SDS011;36308;46.312;25.288;2022-08-19T06:10:04;17.00;;;11.20;;
50393;SDS011;36308;46.312;25.288;2022-08-19T06:12:31;16.70;;;11.50;;
50393;SDS011;36308;46.312;25.288;2022-08-19T06:14:59;15.45;;;11.10;;
50393;SDS011;36308;46.312;25.288;2022-08-19T06:17:26;15.73;;;11.05;;
50393;SDS011;36308;46.312;25.288;2022-08-19T06:19:52;14.77;;;11.50;;
50393;SDS011;36308;46.312;25.288;2022-08-19T06:22:17;17.88;;;11.68;;
50393;SDS011;36308;46.312;25.288;2022-08-19T06:24:43;12.32;;;10.93;;
50393;SDS011;36308;46.312;25.288;2022-08-19T06:27:08;17.80;;;11.45;;
50393;SDS011;36308;46.312;25.288;2022-08-19T06:29:35;17.23;;;11.80;;
50393;SDS011;36308;46.312;25.288;2022-08-19T06:32:01;21.23;;;12.02;;
50393;SDS011;36308;46.312;25.288;2022-08-19T06:34:28;20.60;;;11.88;;
50393;SDS011;36308;46.312;25.288;2022-08-19T06:36:56;19.92;;;11.23;;
50393;SDS011;36308;46.312;25.288;2022-08-19T06:39:26;16.67;;;11.05;;
50393;SDS011;36308;46.312;25.288;2022-08-19T06:41:55;14.75;;;10.48;;
50393;SDS011;36308;46.312;25.288;2022-08-19T06:44:23;16.80;;;10.32;;
50393;SDS011;36308;46.312;25.288;2022-08-19T06:46:52;16.52;;;10.35;;
50393;SDS011;36308;46.312;25.288;2022-08-19T06:49:19;12.60;;;9.65;;
50393;SDS011;36308;46.312;25.288;2022-08-19T06:51:45;14.93;;;10.05;;
50393;SDS011;36308;46.312;25.288;2022-08-19T06:54:13;14.65;;;9.85;;
50393;SDS011;36308;46.312;25.288;2022-08-19T06:56:39;17.20;;;10.65;;
50393;SDS011;36308;46.312;25.288;2022-08-19T06:59:06;22.17;;;10.82;;
50393;SDS011;36308;46.312;25.288;2022-08-19T07:01:35;14.77;;;10.50;;
50393;SDS011;36308;46.312;25.288;2022-08-19T07:04:08;14.27;;;9.80;;
50393;SDS011;36308;46.312;25.288;2022-08-19T07:06:34;15.65;;;9.98;;
50393;SDS011;36308;46.312;25.288;2022-08-19T07:09:01;15.32;;;10.13;;
50393;SDS011;36308;46.312;25.288;2022-08-19T07:11:30;14.27;;;10.48;;
50393;SDS011;36308;46.312;25.288;2022-08-19T07:13:57;16.98;;;9.48;;
50393;SDS011;36308;46.312;25.288;2022-08-19T07:16:23;15.57;;;10.50;;
50393;SDS011;36308;46.312;25.288;2022-08-19T07:18:51;14.27;;;9.95;;
50393;SDS011;36308;46.312;25.288;2022-08-19T07:21:18;15.32;;;9.85;;
50393;SDS011;36308;46.312;25.288;2022-08-19T07:23:49;11.77;;;9.40;;
50393;SDS011;36308;46.312;25.288;2022-08-19T07:26:21;13.80;;;9.05;;
50393;SDS011;36308;46.312;25.288;2022-08-19T07:28:51;12.15;;;8.77;;
50393;SDS011;36308;46.312;25.288;2022-08-19T07:31:21;11.60;;;9.43;;
50393;SDS011;36308;46.312;25.288;2022-08-19T07:33:49;18.83;;;9.43;;
50393;SDS011;36308;46.312;25.288;2022-08-19T07:36:17;15.50;;;9.60;;
50393;SDS011;36308;46.312;25.288;2022-08-19T07:38:46;14.00;;;9.25;;
50393;SDS011;36308;46.312;25.288;2022-08-19T07:41:13;14.52;;;9.80;;
50393;SDS011;36308;46.312;25.288;2022-08-19T07:43:41;15.73;;;9.50;;
50393;SDS011;36308;46.312;25.288;2022-08-19T07:46:08;14.25;;;8.75;;
50393;SDS011;36308;46.312;25.288;2022-08-19T07:48:35;14.57;;;9.50;;
50393;SDS011;36308;46.312;25.288;2022-08-19T07:51:02;12.95;;;8.52;;
50393;SDS011;36308;46.312;25.288;2022-08-19T07:53:31;11.70;;;8.23;;
50393;SDS011;36308;46.312;25.288;2022-08-19T07:55:59;12.05;;;8.55;;
50393;SDS011;36308;46.312;25.288;2022-08-19T07:58:29;12.95;;;8.30;;
50393;SDS011;36308;46.312;25.288;2022-08-19T08:00:59;11.93;;;8.43;;
50393;SDS011;36308;46.312;25.288;2022-08-19T08:03:26;11.57;;;8.00;;
50393;SDS011;36308;46.312;25.288;2022-08-19T08:06:12;12.23;;;8.80;;
50393;SDS011;36308;46.312;25.288;2022-08-19T08:08:57;10.13;;;7.13;;
50393;SDS011;36308;46.312;25.288;2022-08-19T08:11:43;10.57;;;7.60;;
50393;SDS011;36308;46.312;25.288;2022-08-19T08:14:19;12.32;;;7.85;;
50393;SDS011;36308;46.312;25.288;2022-08-19T08:16:47;11.95;;;8.55;;
50393;SDS011;36308;46.312;25.288;2022-08-19T08:19:15;14.13;;;7.95;;
50393;SDS011;36308;46.312;25.288;2022-08-19T08:21:41;12.00;;;7.97;;
50393;SDS011;36308;46.312;25.288;2022-08-19T08:24:07;15.43;;;8.65;;
50393;SDS011;36308;46.312;25.288;2022-08-19T08:26:33;11.05;;;7.63;;
50393;SDS011;36308;46.312;25.288;2022-08-19T08:28:59;10.18;;;6.97;;
50393;SDS011;36308;46.312;25.288;2022-08-19T08:31:24;12.48;;;7.75;;
50393;SDS011;36308;46.312;25.288;2022-08-19T08:36:41;12.10;;;7.55;;
50393;SDS011;36308;46.312;25.288;2022-08-19T08:39:11;9.27;;;7.45;;
50393;SDS011;36308;46.312;25.288;2022-08-19T08:45:05;12.02;;;7.63;;
50393;SDS011;36308;46.312;25.288;2022-08-19T08:47:41;12.75;;;7.13;;
50393;SDS011;36308;46.312;25.288;2022-08-19T08:50:23;9.73;;;7.10;;
50393;SDS011;36308;46.312;25.288;2022-08-19T08:52:55;9.90;;;7.13;;
50393;SDS011;36308;46.312;25.288;2022-08-19T08:55:28;10.18;;;7.20;;
50393;SDS011;36308;46.312;25.288;2022-08-19T08:58:03;10.02;;;6.82;;
50393;SDS011;36308;46.312;25.288;2022-08-19T09:00:32;10.20;;;6.80;;
50393;SDS011;36308;46.312;25.288;2022-08-19T09:03:00;10.05;;;7.32;;
50393;SDS011;36308;46.312;25.288;2022-08-19T09:05:32;9.82;;;7.15;;
50393;SDS011;36308;46.312;25.288;2022-08-19T09:11:25;8.52;;;6.53;;
50393;SDS011;36308;46.312;25.288;2022-08-19T09:14:49;13.07;;;7.38;;
50393;SDS011;36308;46.312;25.288;2022-08-19T09:16:54;8.20;;;6.63;;
50393;SDS011;36308;46.312;25.288;2022-08-19T09:19:19;11.55;;;6.85;;
50393;SDS011;36308;46.312;25.288;2022-08-19T09:21:45;10.98;;;6.13;;
50393;SDS011;36308;46.312;25.288;2022-08-19T09:24:11;9.93;;;6.40;;
50393;SDS011;36308;46.312;25.288;2022-08-19T09:26:37;7.93;;;6.22;;
50393;SDS011;36308;46.312;25.288;2022-08-19T09:29:02;9.50;;;5.60;;
50393;SDS011;36308;46.312;25.288;2022-08-19T09:31:30;9.93;;;6.03;;
50393;SDS011;36308;46.312;25.288;2022-08-19T09:33:57;8.20;;;6.88;;
50393;SDS011;36308;46.312;25.288;2022-08-19T09:36:25;9.18;;;5.93;;
50393;SDS011;36308;46.312;25.288;2022-08-19T09:38:54;10.43;;;6.00;;
50393;SDS011;36308;46.312;25.288;2022-08-19T09:41:21;10.07;;;5.72;;
50393;SDS011;36308;46.312;25.288;2022-08-19T09:43:50;10.25;;;6.05;;
50393;SDS011;36308;46.312;25.288;2022-08-19T09:46:18;8.68;;;5.15;;
50393;SDS011;36308;46.312;25.288;2022-08-19T09:48:46;7.20;;;5.90;;
50393;SDS011;36308;46.312;25.288;2022-08-19T09:51:14;11.55;;;5.82;;
50393;SDS011;36308;46.312;25.288;2022-08-19T09:53:45;8.23;;;5.88;;
50393;SDS011;36308;46.312;25.288;2022-08-19T09:56:11;7.80;;;5.60;;
50393;SDS011;36308;46.312;25.288;2022-08-19T09:58:38;7.72;;;5.72;;
50393;SDS011;36308;46.312;25.288;2022-08-19T10:01:04;7.40;;;5.57;;
50393;SDS011;36308;46.312;25.288;2022-08-19T10:03:31;7.55;;;5.40;;
50393;SDS011;36308;46.312;25.288;2022-08-19T10:06:00;12.85;;;5.50;;
50393;SDS011;36308;46.312;25.288;2022-08-19T10:08:34;7.75;;;5.32;;
50393;SDS011;36308;46.312;25.288;2022-08-19T10:11:02;9.02;;;5.30;;
50393;SDS011;36308;46.312;25.288;2022-08-19T10:13:29;8.38;;;5.38;;
50393;SDS011;36308;46.312;25.288;2022-08-19T10:16:02;8.05;;;5.50;;
50393;SDS011;36308;46.312;25.288;2022-08-19T10:18:33;7.82;;;5.32;;
50393;SDS011;36308;46.312;25.288;2022-08-19T10:21:07;12.80;;;5.88;;
50393;SDS011;36308;46.312;25.288;2022-08-19T10:23:39;7.88;;;5.63;;
50393;SDS011;36308;46.312;25.288;2022-08-19T10:26:10;9.68;;;5.45;;
50393;SDS011;36308;46.312;25.288;2022-08-19T10:28:37;6.82;;;5.28;;
50393;SDS011;36308;46.312;25.288;2022-08-19T10:31:03;10.38;;;5.38;;
50393;SDS011;36308;46.312;25.288;2022-08-19T10:33:36;7.57;;;5.30;;
50393;SDS011;36308;46.312;25.288;2022-08-19T10:36:05;7.53;;;5.03;;
50393;SDS011;36308;46.312;25.288;2022-08-19T10:38:33;11.38;;;5.43;;
50393;SDS011;36308;46.312;25.288;2022-08-19T10:41:06;10.38;;;5.15;;
50393;SDS011;36308;46.312;25.288;2022-08-19T10:43:33;8.93;;;5.22;;
50393;SDS011;36308;46.312;25.288;2022-08-19T10:46:01;6.50;;;5.22;;
50393;SDS011;36308;46.312;25.288;2022-08-19T10:48:28;9.70;;;5.28;;
50393;SDS011;36308;46.312;25.288;2022-08-19T10:50:54;10.80;;;5.38;;
50393;SDS011;36308;46.312;25.288;2022-08-19T10:53:40;6.72;;;5.10;;
50393;SDS011;36308;46.312;25.288;2022-08-19T10:56:05;7.97;;;5.10;;
50393;SDS011;36308;46.312;25.288;2022-08-19T10:58:49;8.27;;;5.20;;
50393;SDS011;36308;46.312;25.288;2022-08-19T11:01:15;11.20;;;5.22;;
50393;SDS011;36308;46.312;25.288;2022-08-19T11:03:40;6.63;;;5.05;;
50393;SDS011;36308;46.312;25.288;2022-08-19T11:06:07;8.68;;;5.35;;
50393;SDS011;36308;46.312;25.288;2022-08-19T11:08:34;7.55;;;5.53;;
50393;SDS011;36308;46.312;25.288;2022-08-19T11:11:03;7.78;;;5.32;;
50393;SDS011;36308;46.312;25.288;2022-08-19T11:13:33;8.27;;;5.00;;
50393;SDS011;36308;46.312;25.288;2022-08-19T11:16:24;8.23;;;5.10;;
50393;SDS011;36308;46.312;25.288;2022-08-19T11:18:53;8.93;;;5.25;;
50393;SDS011;36308;46.312;25.288;2022-08-19T11:21:24;8.77;;;5.63;;
50393;SDS011;36308;46.312;25.288;2022-08-19T11:23:58;13.77;;;5.55;;
50393;SDS011;36308;46.312;25.288;2022-08-19T11:26:25;9.70;;;5.00;;
50393;SDS011;36308;46.312;25.288;2022-08-19T11:28:52;14.70;;;5.20;;
50393;SDS011;36308;46.312;25.288;2022-08-19T11:31:20;7.70;;;5.18;;
50393;SDS011;36308;46.312;25.288;2022-08-19T11:33:51;9.30;;;5.10;;
50393;SDS011;36308;46.312;25.288;2022-08-19T11:36:19;10.55;;;5.68;;
50393;SDS011;36308;46.312;25.288;2022-08-19T11:38:45;8.38;;;5.35;;
50393;SDS011;36308;46.312;25.288;2022-08-19T11:41:14;7.22;;;5.13;;
50393;SDS011;36308;46.312;25.288;2022-08-19T11:43:42;8.77;;;5.47;;
50393;SDS011;36308;46.312;25.288;2022-08-19T11:46:08;9.27;;;4.78;;
50393;SDS011;36308;46.312;25.288;2022-08-19T11:48:40;11.88;;;4.80;;
50393;SDS011;36308;46.312;25.288;2022-08-19T11:51:09;6.00;;;4.82;;
50393;SDS011;36308;46.312;25.288;2022-08-19T11:53:39;11.85;;;5.70;;
50393;SDS011;36308;46.312;25.288;2022-08-19T11:56:12;10.75;;;5.68;;
50393;SDS011;36308;46.312;25.288;2022-08-19T11:58:37;7.40;;;4.75;;
50393;SDS011;36308;46.312;25.288;2022-08-19T12:01:11;7.63;;;5.38;;
50393;SDS011;36308;46.312;25.288;2022-08-19T12:03:38;9.20;;;4.88;;
50393;SDS011;36308;46.312;25.288;2022-08-19T12:06:08;6.95;;;4.75;;
50393;SDS011;36308;46.312;25.288;2022-08-19T12:08:35;8.27;;;5.05;;
50393;SDS011;36308;46.312;25.288;2022-08-19T12:11:01;7.88;;;5.20;;
50393;SDS011;36308;46.312;25.288;2022-08-19T12:13:27;7.80;;;5.63;;
50393;SDS011;36308;46.312;25.288;2022-08-19T12:15:55;8.02;;;4.82;;
50393;SDS011;36308;46.312;25.288;2022-08-19T12:18:21;6.05;;;5.40;;
50393;SDS011;36308;46.312;25.288;2022-08-19T12:20:47;8.07;;;5.47;;
50393;SDS011;36308;46.312;25.288;2022-08-19T12:23:16;6.65;;;4.47;;
50393;SDS011;36308;46.312;25.288;2022-08-19T12:25:46;8.20;;;4.80;;
50393;SDS011;36308;46.312;25.288;2022-08-19T12:28:17;7.53;;;5.25;;
50393;SDS011;36308;46.312;25.288;2022-08-19T12:30:44;5.97;;;4.75;;
50393;SDS011;36308;46.312;25.288;2022-08-19T12:33:09;8.80;;;5.30;;
50393;SDS011;36308;46.312;25.288;2022-08-19T12:35:35;7.55;;;5.20;;
50393;SDS011;36308;46.312;25.288;2022-08-19T12:38:00;8.60;;;4.78;;
50393;SDS011;36308;46.312;25.288;2022-08-19T12:40:27;8.75;;;4.63;;
50393;SDS011;36308;46.312;25.288;2022-08-19T12:42:53;8.43;;;4.90;;
50393;SDS011;36308;46.312;25.288;2022-08-19T12:45:19;7.53;;;4.93;;
50393;SDS011;36308;46.312;25.288;2022-08-19T12:47:44;8.60;;;4.90;;
50393;SDS011;36308;46.312;25.288;2022-08-19T12:50:11;8.85;;;4.40;;
50393;SDS011;36308;46.312;25.288;2022-08-19T12:52:37;9.20;;;5.13;;
50393;SDS011;36308;46.312;25.288;2022-08-19T12:55:03;8.30;;;5.45;;
50393;SDS011;36308;46.312;25.288;2022-08-19T12:57:30;11.68;;;4.93;;
50393;SDS011;36308;46.312;25.288;2022-08-19T13:00:06;8.18;;;4.90;;
50393;SDS011;36308;46.312;25.288;2022-08-19T13:02:38;4.75;;;4.28;;
50393;SDS011;36308;46.312;25.288;2022-08-19T13:05:07;9.00;;;4.90;;
50393;SDS011;36308;46.312;25.288;2022-08-19T13:07:34;7.93;;;5.53;;
50393;SDS011;36308;46.312;25.288;2022-08-19T13:09:59;6.70;;;4.60;;
50393;SDS011;36308;46.312;25.288;2022-08-19T13:12:25;8.57;;;4.63;;
50393;SDS011;36308;46.312;25.288;2022-08-19T13:14:52;7.93;;;5.00;;
50393;SDS011;36308;46.312;25.288;2022-08-19T13:17:20;10.15;;;4.57;;
50393;SDS011;36308;46.312;25.288;2022-08-19T13:19:46;4.75;;;4.32;;
50393;SDS011;36308;46.312;25.288;2022-08-19T13:22:12;6.07;;;4.32;;
50393;SDS011;36308;46.312;25.288;2022-08-19T13:24:37;6.32;;;5.00;;
50393;SDS011;36308;46.312;25.288;2022-08-19T13:27:03;9.82;;;4.85;;
50393;SDS011;36308;46.312;25.288;2022-08-19T13:29:29;11.63;;;4.45;;
50393;SDS011;36308;46.312;25.288;2022-08-19T13:32:15;8.13;;;4.57;;
50393;SDS011;36308;46.312;25.288;2022-08-19T13:34:59;9.13;;;4.43;;
50393;SDS011;36308;46.312;25.288;2022-08-19T13:40:14;9.30;;;4.80;;
50393;SDS011;36308;46.312;25.288;2022-08-19T13:42:43;6.72;;;4.70;;
50393;SDS011;36308;46.312;25.288;2022-08-19T13:47:49;11.40;;;5.68;;
50393;SDS011;36308;46.312;25.288;2022-08-19T13:50:19;7.35;;;4.63;;
50393;SDS011;36308;46.312;25.288;2022-08-19T13:52:46;5.68;;;4.43;;
50393;SDS011;36308;46.312;25.288;2022-08-19T13:55:13;8.73;;;4.75;;
50393;SDS011;36308;46.312;25.288;2022-08-19T13:57:40;8.50;;;4.68;;
50393;SDS011;36308;46.312;25.288;2022-08-19T14:00:07;5.65;;;4.63;;
50393;SDS011;36308;46.312;25.288;2022-08-19T14:02:39;7.50;;;4.97;;
50393;SDS011;36308;46.312;25.288;2022-08-19T14:05:06;8.60;;;4.65;;
50393;SDS011;36308;46.312;25.288;2022-08-19T14:07:34;8.98;;;4.88;;
50393;SDS011;36308;46.312;25.288;2022-08-19T14:10:00;6.95;;;4.45;;
50393;SDS011;36308;46.312;25.288;2022-08-19T14:12:26;7.13;;;4.63;;
50393;SDS011;36308;46.312;25.288;2022-08-19T14:14:51;6.05;;;4.60;;
50393;SDS011;36308;46.312;25.288;2022-08-19T14:19:58;7.75;;;4.63;;
50393;SDS011;36308;46.312;25.288;2022-08-19T14:22:30;7.60;;;4.80;;
50393;SDS011;36308;46.312;25.288;2022-08-19T14:24:58;7.22;;;4.78;;
50393;SDS011;36308;46.312;25.288;2022-08-19T14:27:24;9.55;;;5.35;;
50393;SDS011;36308;46.312;25.288;2022-08-19T14:29:50;8.27;;;5.20;;
50393;SDS011;36308;46.312;25.288;2022-08-19T14:32:17;9.20;;;5.20;;
50393;SDS011;36308;46.312;25.288;2022-08-19T14:34:42;6.32;;;4.63;;
50393;SDS011;36308;46.312;25.288;2022-08-19T14:37:10;6.15;;;4.88;;
50393;SDS011;36308;46.312;25.288;2022-08-19T14:39:36;5.75;;;4.60;;
50393;SDS011;36308;46.312;25.288;2022-08-19T14:42:06;8.13;;;4.78;;
50393;SDS011;36308;46.312;25.288;2022-08-19T14:44:33;7.68;;;4.60;;
50393;SDS011;36308;46.312;25.288;2022-08-19T14:46:59;7.22;;;4.95;;